Airfield :







YOU CAN JOIN US ON...

 
LOGIN :

Register | Disclaimer

   EN    FR    IT 

 









Legend :    VFR   Marginal VFR   IFR   Intensive IFR   Very Intensive IFR
Visi :
Ceiling :
>= 8 km
>= 3000ft
5 to 8 km
1000 to 3000 ft
1500m to 5 km
500 to 1000 ft
800 to 1500m
200 to 500 ft
< 800m
< 200 ft
Symbols :   Thunderstorms  Fog  Heavy snow  Heavy precipitations  Wind > 20 kt







- Airport Elevation : 454 ft


KIZG - Eastern Slopes Regional

CURRENT METAR :
  • 220454Z AUTO 00000KT 10SM OVC013 02/00 A2988 RMK AO2 SLP123 T00170000 400891056

EXPIRED METARs :
  • 220354Z AUTO 08003KT 10SM OVC014 02/M01 A2990 RMK AO2 SLP131 T00171006
  • 220318Z AUTO 00000KT 10SM BKN015 02/M01 A2992 RMK AO2 T00221006
  • 220254Z AUTO 10003KT 10SM SCT095 02/M01 A2993 RMK AO2 SLP141 T00221006 58024

TAF N/A
KZBW FIR / North America



MET'MAP, your aeronautical weather chart ! - Copyright ORBIFLY December 2007 - Disclaimer

ORBIFLY MET'MAP TEAM :

Programming & Development : Alexandra Zaïnal
Concept & Development : Baudouin d'Aumeries
Co-Development & Prog : Marc-Olivier Méhu
Technical & hardware support : Manuel Goepfert

Contact : metmap@orbifly.com




SOURCES & CREDITS :

   NOAA